Time,TemperatureF,DewpointF,PressureIn,WindDirection,WindDirectionDegrees,WindSpeedMPH,WindSpeedGustMPH,Humidity,HourlyPrecipIn,Conditions,Clouds,dailyrainin,SolarRadiationWatts/m^2,SoftwareType,DateUTC
2013-09-05 00:03:00,45.0,45.0,-100.00,NNW,329,1.0,5.0,100,0.00,,,0.36,0.000000,,2013-09-05 08:03:00,
2013-09-05 00:12:00,45.0,45.0,-100.00,NNW,329,1.0,5.0,100,0.00,,,0.36,0.000000,,2013-09-05 08:12:00,
2013-09-05 00:21:00,45.0,45.0,-100.00,NNW,329,1.0,5.0,100,0.00,,,0.36,0.000000,,2013-09-05 08:21:00,
2013-09-05 00:52:00,42.0,42.0,-100.00,SE,134,1.0,4.0,100,0.00,,,0.36,0.000000,,2013-09-05 08:52:00,
2013-09-05 01:02:00,42.0,42.0,-100.00,SE,134,1.0,4.0,100,0.00,,,0.36,0.000000,,2013-09-05 09:02:00,
2013-09-05 01:11:00,42.0,42.0,-100.00,SE,134,1.0,4.0,100,0.00,,,0.36,0.000000,,2013-09-05 09:11:00,
2013-09-05 01:22:00,42.0,42.0,-100.00,SE,134,1.0,4.0,100,0.00,,,0.36,0.000000,,2013-09-05 09:22:00,
2013-09-05 06:52:00,39.0,39.0,-100.00,SW,221,1.0,4.0,100,-99.99,,,0.19,0.000000,,2013-09-05 14:52:00,
2013-09-05 07:02:00,39.0,39.0,-100.00,SW,221,1.0,4.0,100,-99.99,,,0.19,0.000000,,2013-09-05 15:02:00,
2013-09-05 07:11:00,39.0,39.0,-100.00,SW,221,1.0,4.0,100,-99.99,,,0.19,0.000000,,2013-09-05 15:11:00,
2013-09-05 07:22:00,39.0,39.0,-100.00,SW,221,1.0,4.0,100,-99.99,,,0.19,0.000000,,2013-09-05 15:22:00,
2013-09-05 07:54:00,41.0,41.0,-100.00,SSE,150,2.0,5.0,100,0.00,,,0.19,0.000000,,2013-09-05 15:54:00,
2013-09-05 08:03:00,41.0,41.0,-100.00,SSE,150,2.0,5.0,100,0.00,,,0.19,0.000000,,2013-09-05 16:03:00,
2013-09-05 08:13:00,41.0,41.0,-100.00,SSE,150,2.0,5.0,100,0.00,,,0.19,0.000000,,2013-09-05 16:13:00,
2013-09-05 08:23:00,41.0,41.0,-100.00,SSE,150,2.0,5.0,100,0.00,,,0.19,0.000000,,2013-09-05 16:23:00,
2013-09-05 08:54:00,45.0,45.0,-100.00,WSW,246,4.0,9.0,100,0.00,,,0.19,9.000000,,2013-09-05 16:54:00,
2013-09-05 09:03:00,45.0,45.0,-100.00,WSW,246,4.0,9.0,100,0.00,,,0.19,9.000000,,2013-09-05 17:03:00,
2013-09-05 09:12:00,45.0,45.0,-100.00,WSW,246,4.0,9.0,100,0.00,,,0.19,9.000000,,2013-09-05 17:12:00,
2013-09-05 09:23:00,45.0,45.0,-100.00,WSW,246,4.0,9.0,100,0.00,,,0.19,9.000000,,2013-09-05 17:23:00,
2013-09-05 09:52:00,47.0,46.0,-100.00,NNE,33,2.0,13.0,95,0.00,,,0.19,16.000000,,2013-09-05 17:52:00,
2013-09-05 10:02:00,47.0,46.0,-100.00,NNE,33,2.0,13.0,95,0.00,,,0.19,16.000000,,2013-09-05 18:02:00,
2013-09-05 10:12:00,47.0,46.0,-100.00,NNE,33,2.0,13.0,95,0.00,,,0.19,16.000000,,2013-09-05 18:12:00,
2013-09-05 10:21:00,47.0,46.0,-100.00,NNE,33,2.0,13.0,95,0.00,,,0.19,16.000000,,2013-09-05 18:21:00,
2013-09-05 10:52:00,49.0,49.0,-100.00,North,3,2.0,7.0,100,0.00,,,0.17,29.000000,,2013-09-05 18:52:00,
2013-09-05 11:01:00,49.0,49.0,-100.00,North,3,2.0,7.0,100,0.00,,,0.17,29.000000,,2013-09-05 19:01:00,
2013-09-05 11:11:00,49.0,49.0,-100.00,North,3,2.0,7.0,100,0.00,,,0.17,29.000000,,2013-09-05 19:11:00,
2013-09-05 11:21:00,49.0,49.0,-100.00,North,3,2.0,7.0,100,0.00,,,0.17,29.000000,,2013-09-05 19:21:00,
2013-09-05 11:52:00,49.0,49.0,-100.00,SE,145,2.0,6.0,100,0.00,,,0.16,31.000000,,2013-09-05 19:52:00,
2013-09-05 12:03:00,49.0,49.0,-100.00,SE,145,2.0,6.0,100,0.00,,,0.16,31.000000,,2013-09-05 20:03:00,
2013-09-05 12:11:00,49.0,49.0,-100.00,SE,145,2.0,6.0,100,0.00,,,0.16,31.000000,,2013-09-05 20:11:00,
2013-09-05 12:22:00,49.0,49.0,-100.00,SE,145,2.0,6.0,100,0.00,,,0.16,31.000000,,2013-09-05 20:22:00,
2013-09-05 15:53:00,64.0,42.0,-100.00,WSW,250,5.0,13.0,45,0.01,,,0.05,427.000000,,2013-09-05 23:53:00,
2013-09-05 16:02:00,64.0,42.0,-100.00,WSW,250,5.0,13.0,45,0.01,,,0.05,427.000000,,2013-09-06 00:02:00,
2013-09-05 16:12:00,64.0,42.0,-100.00,WSW,250,5.0,13.0,45,0.01,,,0.05,427.000000,,2013-09-06 00:12:00,
2013-09-05 16:22:00,64.0,42.0,-100.00,WSW,250,5.0,13.0,45,0.01,,,0.05,427.000000,,2013-09-06 00:22:00,
2013-09-05 16:52:00,62.0,42.0,-100.00,SW,235,5.0,12.0,47,0.00,,,0.03,300.000000,,2013-09-06 00:52:00,
2013-09-05 17:01:00,62.0,42.0,-100.00,SW,235,5.0,12.0,47,0.00,,,0.03,300.000000,,2013-09-06 01:01:00,
2013-09-05 17:11:00,62.0,42.0,-100.00,SW,235,5.0,12.0,47,0.00,,,0.03,300.000000,,2013-09-06 01:11:00,
2013-09-05 17:21:00,62.0,42.0,-100.00,SW,235,5.0,12.0,47,0.00,,,0.03,300.000000,,2013-09-06 01:21:00,
2013-09-05 17:52:00,64.0,43.0,-100.00,South,173,3.0,14.0,46,0.00,,,0.03,388.000000,,2013-09-06 01:52:00,
2013-09-05 18:02:00,64.0,43.0,-100.00,South,173,3.0,14.0,46,0.00,,,0.03,388.000000,,2013-09-06 02:02:00,
2013-09-05 18:11:00,64.0,43.0,-100.00,South,173,3.0,14.0,46,0.00,,,0.03,388.000000,,2013-09-06 02:11:00,
2013-09-05 18:22:00,64.0,43.0,-100.00,South,173,3.0,14.0,46,0.00,,,0.03,388.000000,,2013-09-06 02:22:00,
2013-09-05 18:52:00,59.0,43.0,-100.00,ENE,67,2.0,9.0,55,0.00,,,0.03,168.000000,,2013-09-06 02:52:00,
2013-09-05 19:02:00,59.0,43.0,-100.00,ENE,67,2.0,9.0,55,0.00,,,0.03,168.000000,,2013-09-06 03:02:00,
2013-09-05 19:11:00,59.0,43.0,-100.00,ENE,67,2.0,9.0,55,0.00,,,0.03,168.000000,,2013-09-06 03:11:00,
2013-09-05 19:22:00,59.0,43.0,-100.00,ENE,67,2.0,9.0,55,0.00,,,0.03,168.000000,,2013-09-06 03:22:00,
2013-09-05 19:55:00,57.0,40.0,-100.00,ESE,105,2.0,11.0,53,0.00,,,0.02,87.000000,,2013-09-06 03:55:00,
2013-09-05 20:04:00,57.0,40.0,-100.00,ESE,105,2.0,11.0,53,0.00,,,0.02,87.000000,,2013-09-06 04:04:00,
2013-09-05 20:13:00,57.0,40.0,-100.00,ESE,105,2.0,11.0,53,0.00,,,0.02,87.000000,,2013-09-06 04:13:00,
2013-09-05 20:23:00,57.0,40.0,-100.00,ESE,105,2.0,11.0,53,0.00,,,0.02,87.000000,,2013-09-06 04:23:00,
2013-09-05 20:54:00,51.0,46.0,-100.00,ESE,118,2.0,4.0,84,0.00,,,0.02,26.000000,,2013-09-06 04:54:00,
2013-09-05 21:03:00,51.0,46.0,-100.00,ESE,118,2.0,4.0,84,0.00,,,0.02,26.000000,,2013-09-06 05:03:00,
2013-09-05 21:12:00,51.0,46.0,-100.00,ESE,118,2.0,4.0,84,0.00,,,0.02,26.000000,,2013-09-06 05:12:00,
2013-09-05 21:23:00,51.0,46.0,-100.00,ESE,118,2.0,4.0,84,0.00,,,0.02,26.000000,,2013-09-06 05:23:00,
2013-09-05 22:21:00,45.0,43.0,-100.00,SE,138,1.0,4.0,92,0.00,,,0.02,3.000000,,2013-09-06 06:21:00,
2013-09-05 23:11:00,44.0,43.0,-100.00,SSE,148,2.0,4.0,98,0.00,,,0.02,0.000000,,2013-09-06 07:11:00,
2013-09-05 23:23:00,44.0,43.0,-100.00,SSE,148,2.0,4.0,98,0.00,,,0.02,0.000000,,2013-09-06 07:23:00,
2013-09-05 23:52:00,43.0,43.0,-100.00,South,173,1.0,4.0,100,0.00,,,0.02,0.000000,,2013-09-06 07:52:00,